Time;durP1;ratioP1;P1;durP2;ratioP2;P2;SDS_P1;SDS_P2;PMS_P1;PMS_P2;Temp;Humidity;BMP_temperature;BMP_pressure;BME280_temperature;BME280_humidity;BME280_pressure;Samples;Min_cycle;Max_cycle;Signal;HPM_P1;HPM_P2
2024/02/11 00:00:28;;;;;;;21.48;12.00;;;;;;;-141.50;100.00;63355.56;5117701;28;20047;-81
2024/02/11 00:02:56;;;;;;;25.10;11.90;;;;;;;-141.50;100.00;63355.56;5101468;28;20120;-80
2024/02/11 00:05:24;;;;;;;22.77;11.93;;;;;;;-141.50;100.00;63355.56;5098118;28;20418;-81
2024/02/11 00:07:51;;;;;;;22.23;11.43;;;;;;;-141.50;100.00;63355.56;5093371;28;20056;-81
2024/02/11 00:10:18;;;;;;;21.10;11.98;;;;;;;-141.50;100.00;63355.56;5112857;28;20063;-79
2024/02/11 00:12:45;;;;;;;19.45;11.05;;;;;;;-141.50;100.00;63355.56;5092288;28;20048;-80
2024/02/11 00:15:13;;;;;;;25.02;11.52;;;;;;;-141.50;100.00;63355.56;5089766;28;20166;-80
2024/02/11 00:17:42;;;;;;;23.55;11.30;;;;;;;-141.50;100.00;63355.56;5118043;28;20043;-80
2024/02/11 00:20:09;;;;;;;22.95;11.77;;;;;;;-141.50;100.00;63355.56;5117572;28;20047;-80
2024/02/11 00:22:37;;;;;;;22.35;10.93;;;;;;;-141.50;100.00;63355.56;5111306;28;20044;-80
2024/02/11 00:25:09;;;;;;;18.98;11.05;;;;;;;-141.50;100.00;63355.56;5081759;28;20071;-80
2024/02/11 00:27:44;;;;;;;20.20;10.35;;;;;;;-141.50;100.00;63355.56;5083689;28;20035;-81
2024/02/11 00:30:11;;;;;;;20.00;10.45;;;;;;;-141.50;100.00;63355.56;5100615;28;20059;-79
2024/02/11 00:32:38;;;;;;;18.17;10.52;;;;;;;-141.50;100.00;63355.56;5118557;28;20046;-80
2024/02/11 00:35:05;;;;;;;18.13;10.20;;;;;;;-141.50;100.00;63355.56;5114973;28;20113;-80
2024/02/11 00:37:32;;;;;;;16.77;10.00;;;;;;;-141.50;100.00;63355.56;5080933;28;20052;-80
2024/02/11 00:39:59;;;;;;;18.65;10.07;;;;;;;-141.50;100.00;63355.56;5120864;28;20431;-80
2024/02/11 00:42:28;;;;;;;21.95;10.63;;;;;;;-141.50;100.00;63355.56;5098906;28;20056;-81
2024/02/11 00:44:56;;;;;;;17.67;9.93;;;;;;;-141.50;100.00;63355.56;5104142;28;20060;-80
2024/02/11 00:47:22;;;;;;;20.35;10.05;;;;;;;-141.50;100.00;63355.56;5090271;28;20051;-80
2024/02/11 00:49:50;;;;;;;17.75;10.48;;;;;;;-141.50;100.00;63355.56;5119182;28;20082;-80
2024/02/11 00:52:16;;;;;;;17.88;10.40;;;;;;;-141.50;100.00;63355.56;5090687;28;20060;-80
2024/02/11 00:54:43;;;;;;;17.58;9.75;;;;;;;-141.50;100.00;63355.56;5093627;28;20469;-80
2024/02/11 00:57:10;;;;;;;18.02;9.68;;;;;;;-141.50;100.00;63355.56;5087688;28;20087;-80
2024/02/11 00:59:40;;;;;;;17.77;10.25;;;;;;;-141.50;100.00;63355.56;5106078;28;20529;-80
2024/02/11 01:02:09;;;;;;;17.55;9.98;;;;;;;-141.50;100.00;63355.56;5089387;28;20059;-79
2024/02/11 01:04:38;;;;;;;19.92;10.00;;;;;;;-141.50;100.00;63355.56;5091703;28;20060;-80
2024/02/11 01:07:06;;;;;;;19.65;9.65;;;;;;;-141.50;100.00;63355.56;5116748;28;20052;-80
2024/02/11 01:09:34;;;;;;;22.55;10.55;;;;;;;-141.50;100.00;63355.56;5099457;28;20053;-80
2024/02/11 01:12:01;;;;;;;18.38;10.27;;;;;;;-141.50;100.00;63355.56;5081237;28;20044;-80
2024/02/11 01:14:31;;;;;;;18.27;9.82;;;;;;;-141.50;100.00;63355.56;5105912;28;20044;-80
2024/02/11 01:16:58;;;;;;;18.45;10.18;;;;;;;-141.50;100.00;63355.56;5117475;28;20441;-79
2024/02/11 01:19:28;;;;;;;17.13;9.73;;;;;;;-141.50;100.00;63355.56;5116009;28;20055;-81
2024/02/11 01:21:55;;;;;;;19.70;10.23;;;;;;;-141.50;100.00;63355.56;5092704;28;20063;-78
2024/02/11 01:24:21;;;;;;;20.90;9.90;;;;;;;-141.50;100.00;63355.56;5070969;28;20083;-80
2024/02/11 01:26:49;;;;;;;18.27;10.13;;;;;;;-141.50;100.00;63355.56;5112381;28;20048;-80
2024/02/11 01:29:17;;;;;;;18.88;10.27;;;;;;;-141.50;100.00;63355.56;5107459;28;20059;-79
2024/02/11 01:31:46;;;;;;;20.65;10.30;;;;;;;-141.50;100.00;63355.56;5110878;28;20039;-78
2024/02/11 01:34:15;;;;;;;20.65;9.35;;;;;;;-141.50;100.00;63355.56;5098461;28;20347;-79
2024/02/11 01:36:42;;;;;;;19.45;9.25;;;;;;;-141.50;100.00;63355.56;5079780;28;20052;-79
2024/02/11 01:39:08;;;;;;;24.38;10.43;;;;;;;-141.50;100.00;63355.56;5117834;28;20062;-79
2024/02/11 01:41:37;;;;;;;17.92;9.80;;;;;;;-141.50;100.00;63355.56;5117617;28;20048;-79
2024/02/11 01:44:04;;;;;;;17.73;9.48;;;;;;;-141.50;100.00;63355.56;5117222;28;20055;-80
2024/02/11 01:46:33;;;;;;;18.60;9.70;;;;;;;-141.50;100.00;63355.56;5116557;28;20206;-80
2024/02/11 01:49:04;;;;;;;21.17;10.20;;;;;;;-141.50;100.00;63355.56;5093252;28;20459;-79
2024/02/11 01:51:34;;;;;;;17.52;8.85;;;;;;;-141.50;100.00;63355.56;5112651;28;20470;-79
2024/02/11 01:54:03;;;;;;;19.70;9.52;;;;;;;-141.50;100.00;63355.56;5110981;28;20059;-80
2024/02/11 01:56:32;;;;;;;17.88;9.15;;;;;;;-141.50;100.00;63355.56;5113919;28;20055;-80
2024/02/11 01:58:58;;;;;;;17.15;9.13;;;;;;;-141.50;100.00;63355.56;5111216;28;20070;-80
2024/02/11 02:01:27;;;;;;;18.83;9.85;;;;;;;-141.50;100.00;63355.56;5111426;28;20069;-80
2024/02/11 02:03:54;;;;;;;14.80;8.43;;;;;;;-141.50;100.00;63355.56;5112138;28;20039;-79
2024/02/11 02:06:22;;;;;;;17.23;9.45;;;;;;;-141.50;100.00;63355.56;5095534;28;20051;-79
2024/02/11 02:08:49;;;;;;;18.83;9.35;;;;;;;-141.50;100.00;63355.56;5116581;28;20036;-80
2024/02/11 02:11:17;;;;;;;16.27;9.02;;;;;;;-141.50;100.00;63355.56;5116974;28;20127;-80
2024/02/11 02:13:43;;;;;;;15.95;8.75;;;;;;;-141.50;100.00;63355.56;5099759;28;20049;-79
2024/02/11 02:16:10;;;;;;;18.30;9.57;;;;;;;-141.50;100.00;63355.56;5095990;28;20227;-79
2024/02/11 02:18:37;;;;;;;16.25;8.82;;;;;;;-141.50;100.00;63355.56;5096377;28;20048;-79
2024/02/11 02:21:04;;;;;;;18.77;9.07;;;;;;;-141.50;100.00;63355.56;5099891;28;20085;-80
2024/02/11 02:23:31;;;;;;;19.25;9.35;;;;;;;-141.50;100.00;63355.56;5111457;28;20044;-79
2024/02/11 02:26:00;;;;;;;17.00;8.45;;;;;;;-141.50;100.00;63355.56;5096513;28;20086;-79
2024/02/11 02:28:27;;;;;;;19.73;8.45;;;;;;;-141.50;100.00;63355.56;5116100;28;20059;-79
2024/02/11 02:30:54;;;;;;;20.73;8.73;;;;;;;-141.50;100.00;63355.56;5117125;28;20055;-79
2024/02/11 02:33:20;;;;;;;18.90;8.93;;;;;;;-141.50;100.00;63355.56;5117166;28;20073;-79
2024/02/11 02:35:48;;;;;;;19.88;9.55;;;;;;;-141.50;100.00;63355.56;5097020;28;20048;-79
2024/02/11 02:38:14;;;;;;;19.90;9.68;;;;;;;-141.50;100.00;63355.56;5101289;28;20135;-80
2024/02/11 02:40:43;;;;;;;18.77;8.70;;;;;;;-141.50;100.00;63355.56;5096245;28;20142;-79
2024/02/11 02:43:11;;;;;;;26.30;10.15;;;;;;;-141.50;100.00;63355.56;5118454;28;20052;-79
2024/02/11 02:45:41;;;;;;;15.25;8.52;;;;;;;-141.50;100.00;63355.56;5095513;28;20482;-79
2024/02/11 02:48:08;;;;;;;18.67;9.77;;;;;;;-141.50;100.00;63355.56;5114828;28;20055;-79
2024/02/11 02:50:35;;;;;;;21.13;9.70;;;;;;;-141.50;100.00;63355.56;5114408;28;20040;-79
2024/02/11 02:53:03;;;;;;;19.35;9.80;;;;;;;-141.50;100.00;63355.56;5097326;28;20109;-80
2024/02/11 02:55:34;;;;;;;19.42;10.13;;;;;;;-141.50;100.00;63355.56;5091386;28;20115;-78
2024/02/11 02:58:01;;;;;;;20.38;9.13;;;;;;;-141.50;100.00;63355.56;5110501;28;20059;-79
2024/02/11 03:00:28;;;;;;;18.27;9.20;;;;;;;-141.50;100.00;63355.56;5101995;28;20044;-79
2024/02/11 03:02:57;;;;;;;22.27;9.48;;;;;;;-141.50;100.00;63355.56;5092159;28;20490;-80
2024/02/11 03:05:26;;;;;;;19.90;9.85;;;;;;;-141.50;100.00;63355.56;5099933;28;20090;-79
2024/02/11 03:07:55;;;;;;;19.00;9.27;;;;;;;-141.50;100.00;63355.56;5096686;28;20039;-79
2024/02/11 03:10:23;;;;;;;16.10;9.00;;;;;;;-141.50;100.00;63355.56;5098201;28;20109;-80
2024/02/11 03:12:50;;;;;;;20.42;9.60;;;;;;;-141.50;100.00;63355.56;5098137;28;20051;-79
2024/02/11 03:15:17;;;;;;;20.98;8.98;;;;;;;-141.50;100.00;63355.56;5083492;28;20063;-81
2024/02/11 03:17:44;;;;;;;18.27;8.88;;;;;;;-141.50;100.00;63355.56;5095856;28;20044;-80
2024/02/11 03:20:14;;;;;;;18.23;9.60;;;;;;;-141.50;100.00;63355.56;5112036;28;20192;-80
2024/02/11 03:22:42;;;;;;;17.98;9.20;;;;;;;-141.50;100.00;63355.56;5076596;28;20044;-79
2024/02/11 03:25:10;;;;;;;21.92;9.10;;;;;;;-141.50;100.00;63355.56;5096191;28;20055;-80
2024/02/11 03:27:39;;;;;;;21.90;9.88;;;;;;;-141.50;100.00;63355.56;5097174;28;20107;-79
2024/02/11 03:30:07;;;;;;;20.73;10.35;;;;;;;-141.50;100.00;63355.56;5109646;28;20051;-79
2024/02/11 03:32:35;;;;;;;20.25;9.55;;;;;;;-141.50;100.00;63355.56;5115622;28;20062;-79
2024/02/11 03:35:03;;;;;;;19.35;9.15;;;;;;;-141.50;100.00;63355.56;5111464;28;20098;-79
2024/02/11 03:37:34;;;;;;;18.55;10.00;;;;;;;-141.50;100.00;63355.56;5116555;28;20048;-79
2024/02/11 03:40:09;;;;;;;19.38;9.60;;;;;;;-141.50;100.00;63355.56;5111894;28;20197;-79
2024/02/11 03:42:36;;;;;;;18.38;9.25;;;;;;;-141.50;100.00;63355.56;5112802;28;20058;-79
2024/02/11 03:45:15;;;;;;;20.40;9.60;;;;;;;-141.50;100.00;63355.56;5093529;28;20146;-80
2024/02/11 03:47:42;;;;;;;25.20;9.85;;;;;;;-141.50;100.00;63355.56;5092162;28;20501;-79
2024/02/11 03:50:15;;;;;;;15.63;8.52;;;;;;;-141.50;100.00;63355.56;5091246;28;20059;-80
2024/02/11 03:52:43;;;;;;;18.95;9.98;;;;;;;-141.50;100.00;63355.56;5110397;28;20101;-80
2024/02/11 03:55:10;;;;;;;21.95;10.00;;;;;;;-141.50;100.00;63355.56;5096781;28;20047;-80
2024/02/11 03:57:38;;;;;;;20.17;10.15;;;;;;;-141.50;100.00;63355.56;5108172;28;20293;-79
2024/02/11 04:00:23;;;;;;;18.98;10.00;;;;;;;-141.50;100.00;63355.56;5103861;28;20051;-79
2024/02/11 04:02:52;;;;;;;20.52;9.68;;;;;;;-141.50;100.00;63355.56;5101390;28;20039;-78
2024/02/11 04:05:22;;;;;;;18.27;9.82;;;;;;;-141.50;100.00;63355.56;5111268;28;20056;-80
2024/02/11 04:07:50;;;;;;;16.17;8.98;;;;;;;-141.50;100.00;63355.56;5114824;28;20505;-79
2024/02/11 04:10:23;;;;;;;20.60;9.38;;;;;;;-141.50;100.00;63355.56;5114643;28;20079;-79
2024/02/11 04:12:54;;;;;;;20.00;10.32;;;;;;;-141.50;100.00;63355.56;5096878;28;20043;-79
2024/02/11 04:15:24;;;;;;;18.52;9.70;;;;;;;-141.50;100.00;63355.56;5093119;28;20245;-79
2024/02/11 04:17:53;;;;;;;21.83;9.20;;;;;;;-141.50;100.00;63355.56;5091956;28;20044;-78
2024/02/11 04:20:31;;;;;;;18.35;8.77;;;;;;;-141.50;100.00;63355.56;5092643;28;20502;-79
2024/02/11 04:23:00;;;;;;;19.67;9.40;;;;;;;-141.50;100.00;63355.56;5115141;28;20054;-79
2024/02/11 04:25:32;;;;;;;21.30;10.05;;;;;;;-141.50;100.00;63355.56;5097127;28;20129;-79
2024/02/11 04:28:01;;;;;;;16.98;8.57;;;;;;;-141.50;100.00;63355.56;5118806;28;20485;-79
2024/02/11 04:30:29;;;;;;;20.17;9.52;;;;;;;-141.50;100.00;63355.56;5119556;28;20059;-79
2024/02/11 04:33:02;;;;;;;20.67;9.45;;;;;;;-141.50;100.00;63355.56;5118820;28;20062;-79
2024/02/11 04:35:30;;;;;;;18.52;9.00;;;;;;;-141.50;100.00;63355.56;5109435;28;20119;-79
2024/02/11 04:37:59;;;;;;;21.70;9.48;;;;;;;-141.50;100.00;63355.56;5112389;28;20085;-79
2024/02/11 04:40:27;;;;;;;18.02;10.00;;;;;;;-141.50;100.00;63355.56;5119059;28;20062;-79
2024/02/11 04:42:56;;;;;;;18.85;9.88;;;;;;;-141.50;100.00;63355.56;5093982;28;20044;-78
2024/02/11 04:45:25;;;;;;;20.05;9.98;;;;;;;-141.50;100.00;63355.56;5091371;28;20214;-80
2024/02/11 04:47:59;;;;;;;21.17;9.52;;;;;;;-141.50;100.00;63355.56;5118042;27;20067;-80
2024/02/11 04:50:28;;;;;;;20.88;10.05;;;;;;;-141.50;100.00;63355.56;5103073;28;20088;-80
2024/02/11 04:52:56;;;;;;;18.77;9.50;;;;;;;-141.50;100.00;63355.56;5099162;28;20055;-81
2024/02/11 04:55:38;;;;;;;19.20;9.68;;;;;;;-141.50;100.00;63355.56;5117256;28;20073;-79
2024/02/11 04:58:14;;;;;;;20.23;10.07;;;;;;;-141.50;100.00;63355.56;5111491;28;20562;-80
2024/02/11 05:00:46;;;;;;;26.23;9.75;;;;;;;-141.50;100.00;63355.56;5113183;28;20044;-80
2024/02/11 05:03:17;;;;;;;21.73;9.88;;;;;;;-141.50;100.00;63355.56;5112772;28;20068;-79
2024/02/11 05:05:46;;;;;;;22.88;9.80;;;;;;;-141.50;100.00;63355.56;5114166;28;20067;-79
2024/02/11 05:08:16;;;;;;;22.42;10.27;;;;;;;-141.50;100.00;63355.56;5115040;27;20514;-79
2024/02/11 05:10:44;;;;;;;18.38;9.80;;;;;;;-141.50;100.00;63355.56;5111024;28;20043;-79
2024/02/11 05:13:14;;;;;;;20.15;10.10;;;;;;;-141.50;100.00;63355.56;5097955;28;20066;-80
2024/02/11 05:15:42;;;;;;;18.73;9.45;;;;;;;-141.50;100.00;63355.56;5084827;28;20039;-80
2024/02/11 05:18:15;;;;;;;20.27;9.63;;;;;;;-141.50;100.00;63355.56;5099065;28;20637;-80
2024/02/11 05:20:43;;;;;;;21.83;9.75;;;;;;;-141.50;100.00;63355.56;5105903;28;20469;-80
2024/02/11 05:23:10;;;;;;;18.95;9.98;;;;;;;-141.50;100.00;63355.56;5088408;28;20494;-79
2024/02/11 05:25:39;;;;;;;18.88;8.93;;;;;;;-141.50;100.00;63355.56;5108667;28;20043;-78
2024/02/11 05:28:09;;;;;;;17.75;9.73;;;;;;;-141.50;100.00;63355.56;5094843;27;20054;-77
2024/02/11 05:30:45;;;;;;;19.55;9.75;;;;;;;-141.50;100.00;63355.56;5114942;27;20075;-79
2024/02/11 05:33:18;;;;;;;21.60;9.45;;;;;;;-141.50;100.00;63355.56;5108235;28;20063;-77
2024/02/11 05:35:48;;;;;;;21.45;10.32;;;;;;;-141.50;100.00;63355.56;5088893;28;20044;-78
2024/02/11 05:38:16;;;;;;;17.27;9.35;;;;;;;-141.50;100.00;63355.56;5109735;27;20051;-79
2024/02/11 05:40:48;;;;;;;16.63;9.38;;;;;;;-141.50;100.00;63355.56;5099432;28;20051;-79
2024/02/11 05:43:16;;;;;;;19.17;9.35;;;;;;;-141.50;100.00;63355.56;5109752;28;20421;-78
2024/02/11 05:45:43;;;;;;;22.70;10.55;;;;;;;-141.50;100.00;63355.56;5087110;28;20083;-79
2024/02/11 05:48:12;;;;;;;18.10;9.70;;;;;;;-141.50;100.00;63355.56;5110992;28;20085;-78
2024/02/11 05:50:40;;;;;;;22.48;9.90;;;;;;;-141.50;100.00;63355.56;5116457;28;20044;-79
2024/02/11 05:53:08;;;;;;;23.92;9.52;;;;;;;-141.50;100.00;63355.56;5116636;28;20047;-79
2024/02/11 05:55:35;;;;;;;21.52;10.18;;;;;;;-141.50;100.00;63355.56;5098932;28;20043;-79
2024/02/11 05:58:03;;;;;;;21.05;10.27;;;;;;;-141.50;100.00;63355.56;5093647;28;20057;-79
2024/02/11 06:00:31;;;;;;;26.30;11.90;;;;;;;-141.50;100.00;63355.56;5113093;28;20449;-79
2024/02/11 06:02:59;;;;;;;20.30;11.02;;;;;;;-141.50;100.00;63355.56;5110828;28;20055;-79
2024/02/11 06:05:26;;;;;;;26.48;11.68;;;;;;;-141.50;100.00;63355.56;5096753;28;20058;-80
2024/02/11 06:07:55;;;;;;;29.60;12.00;;;;;;;-141.50;100.00;63355.56;5114827;28;20044;-79
2024/02/11 06:10:29;;;;;;;25.75;11.05;;;;;;;-141.50;100.00;63355.56;5095156;28;20347;-79
2024/02/11 06:12:59;;;;;;;23.88;11.27;;;;;;;-141.50;100.00;63355.56;5113260;28;20244;-79
2024/02/11 06:15:27;;;;;;;19.90;10.73;;;;;;;-141.50;100.00;63355.56;5090489;28;20058;-78
2024/02/11 06:17:58;;;;;;;20.63;10.10;;;;;;;-141.50;100.00;63355.56;5110797;28;20056;-78
2024/02/11 06:20:25;;;;;;;22.00;10.68;;;;;;;-141.50;100.00;63355.56;5082923;28;20064;-79
2024/02/11 06:22:56;;;;;;;21.42;10.05;;;;;;;-141.50;100.00;63355.56;5084813;28;20137;-80
2024/02/11 06:25:23;;;;;;;24.60;11.52;;;;;;;-141.50;100.00;63355.56;5096380;28;20055;-77
2024/02/11 06:27:51;;;;;;;22.42;11.00;;;;;;;-141.50;100.00;63355.56;5096180;28;20048;-78
2024/02/11 06:30:19;;;;;;;26.42;11.80;;;;;;;-141.50;100.00;63355.56;5102574;28;20044;-78
2024/02/11 06:32:51;;;;;;;22.95;12.20;;;;;;;-141.50;100.00;63355.56;5098178;28;20649;-78
2024/02/11 06:35:21;;;;;;;22.52;11.35;;;;;;;-141.50;100.00;63355.56;5110974;28;20058;-78
2024/02/11 06:37:49;;;;;;;22.88;11.40;;;;;;;-141.50;100.00;63355.56;5114261;28;20502;-78
2024/02/11 06:40:28;;;;;;;24.95;10.80;;;;;;;-141.50;100.00;63355.56;5100869;28;20055;-78
2024/02/11 06:42:59;;;;;;;17.92;10.18;;;;;;;-141.50;100.00;63355.56;5115790;28;20120;-78
2024/02/11 06:45:28;;;;;;;25.88;11.55;;;;;;;-141.50;100.00;63355.56;5115335;28;20099;-78
2024/02/11 06:47:56;;;;;;;21.83;9.95;;;;;;;-141.50;100.00;63355.56;5097031;28;20402;-78
2024/02/11 06:50:23;;;;;;;21.67;10.32;;;;;;;-141.50;100.00;63355.56;5113870;28;20075;-77
2024/02/11 06:52:50;;;;;;;21.13;10.57;;;;;;;-141.50;100.00;63355.56;5115221;28;20043;-77
2024/02/11 06:55:20;;;;;;;18.40;10.02;;;;;;;-141.50;100.00;63355.56;5090485;28;20469;-77
2024/02/11 06:57:48;;;;;;;17.98;9.50;;;;;;;-141.50;100.00;63355.56;5073200;28;20035;-78
2024/02/11 07:00:18;;;;;;;21.80;11.02;;;;;;;-141.50;100.00;63355.56;5093098;28;20059;-78
2024/02/11 07:02:47;;;;;;;22.90;10.90;;;;;;;-141.50;100.00;63355.56;5091896;28;20062;-78
2024/02/11 07:05:15;;;;;;;21.75;10.23;;;;;;;-141.50;100.00;63355.56;5103350;28;20051;-78
2024/02/11 07:07:44;;;;;;;18.95;10.20;;;;;;;-141.50;100.00;63355.56;5099600;28;20227;-78
2024/02/11 07:10:13;;;;;;;21.75;10.63;;;;;;;-141.50;100.00;63355.56;5085962;28;20051;-77
2024/02/11 07:12:41;;;;;;;20.20;10.07;;;;;;;-141.50;100.00;63355.56;5103961;28;20044;-78
2024/02/11 07:15:08;;;;;;;19.17;10.10;;;;;;;-141.50;100.00;63355.56;5102435;28;20126;-78
2024/02/11 07:17:36;;;;;;;23.15;9.88;;;;;;;-141.50;100.00;63355.56;5105548;28;20069;-79
2024/02/11 07:20:05;;;;;;;18.80;9.07;;;;;;;-141.50;100.00;63355.56;5084527;28;20108;-78
2024/02/11 07:22:33;;;;;;;17.77;9.68;;;;;;;-141.50;100.00;63355.56;5080149;28;20060;-78
2024/02/11 07:25:01;;;;;;;20.63;9.43;;;;;;;-141.50;100.00;63355.56;5078394;28;20050;-78
2024/02/11 07:27:28;;;;;;;21.27;11.02;;;;;;;-141.50;100.00;63355.56;5059751;28;20060;-78
2024/02/11 07:29:54;;;;;;;21.20;9.65;;;;;;;-141.50;100.00;63355.56;5083079;28;20048;-77
2024/02/11 07:32:21;;;;;;;23.10;10.40;;;;;;;-141.50;100.00;63355.56;5093760;28;20060;-78
2024/02/11 07:34:48;;;;;;;20.83;10.73;;;;;;;-141.50;100.00;63355.56;5098302;28;20064;-79
2024/02/11 07:37:16;;;;;;;19.50;9.65;;;;;;;-141.50;100.00;63355.56;5108195;28;20055;-78
2024/02/11 07:39:42;;;;;;;23.30;10.23;;;;;;;-141.50;100.00;63355.56;5105297;28;20484;-78
2024/02/11 07:42:10;;;;;;;20.52;10.73;;;;;;;-141.50;100.00;63355.56;5105844;28;20127;-78
2024/02/11 07:44:36;;;;;;;24.63;11.25;;;;;;;-141.50;100.00;63355.56;5073312;28;20095;-78
2024/02/11 07:47:06;;;;;;;23.25;10.75;;;;;;;-141.50;100.00;63355.56;5078298;28;20098;-78
2024/02/11 07:49:33;;;;;;;21.75;11.05;;;;;;;-141.50;100.00;63355.56;5087791;28;20064;-78
2024/02/11 07:52:00;;;;;;;23.33;11.43;;;;;;;-141.50;100.00;63355.56;5081060;28;20052;-78
2024/02/11 07:54:27;;;;;;;21.33;10.82;;;;;;;-141.50;100.00;63355.56;5085177;28;20044;-78
2024/02/11 07:56:54;;;;;;;24.27;12.10;;;;;;;-141.50;100.00;63355.56;5081778;28;20068;-78
2024/02/11 07:59:21;;;;;;;25.27;12.40;;;;;;;-141.50;100.00;63355.56;5083684;28;20437;-77
2024/02/11 08:01:48;;;;;;;26.85;13.13;;;;;;;-141.50;100.00;63355.56;5066581;28;20127;-78
2024/02/11 08:04:16;;;;;;;27.05;12.65;;;;;;;-141.50;100.00;63355.56;5080055;28;20090;-77
2024/02/11 08:06:43;;;;;;;29.13;13.68;;;;;;;-141.50;100.00;63355.56;5079158;28;20055;-79
2024/02/11 08:09:11;;;;;;;33.47;13.90;;;;;;;-141.50;100.00;63355.56;5086539;28;20059;-78
2024/02/11 08:11:38;;;;;;;47.70;22.35;;;;;;;-141.50;100.00;63355.56;5090968;28;20062;-77
2024/02/11 08:14:05;;;;;;;50.15;23.40;;;;;;;-141.50;100.00;63355.56;5082979;28;20049;-79
2024/02/11 08:16:33;;;;;;;47.70;22.38;;;;;;;-141.50;100.00;63355.56;5091030;28;20048;-78
2024/02/11 08:18:59;;;;;;;48.40;22.95;;;;;;;-141.50;100.00;63355.56;5090205;28;20056;-79
2024/02/11 08:21:26;;;;;;;45.80;21.55;;;;;;;-141.50;100.00;63355.56;5102533;28;20043;-80
2024/02/11 08:23:54;;;;;;;46.05;21.05;;;;;;;-141.50;100.00;63355.56;5088773;28;20088;-80
2024/02/11 08:26:22;;;;;;;40.95;18.60;;;;;;;-141.50;100.00;63355.56;5089805;28;20518;-81
2024/02/11 08:28:50;;;;;;;43.25;18.27;;;;;;;-141.50;100.00;63355.56;5112964;28;20059;-80
2024/02/11 08:31:18;;;;;;;40.45;17.75;;;;;;;-141.50;100.00;63355.56;5108795;28;20299;-78
2024/02/11 08:33:45;;;;;;;32.63;16.13;;;;;;;-141.50;100.00;63355.56;5081354;28;20064;-79
2024/02/11 08:36:14;;;;;;;36.40;17.05;;;;;;;-141.50;100.00;63355.56;5104168;28;20066;-78
2024/02/11 08:38:41;;;;;;;38.25;16.50;;;;;;;-141.50;100.00;63355.56;5102187;28;20111;-79
2024/02/11 08:41:09;;;;;;;38.92;15.77;;;;;;;-141.50;100.00;63355.56;5115426;28;20059;-78
2024/02/11 08:43:36;;;;;;;37.03;16.83;;;;;;;-141.50;100.00;63355.56;5099390;28;20055;-78
2024/02/11 08:46:04;;;;;;;38.17;16.27;;;;;;;-141.50;100.00;63355.56;5089785;28;20072;-78
2024/02/11 08:48:32;;;;;;;36.15;17.30;;;;;;;-141.50;100.00;63355.56;5089126;28;20046;-77
2024/02/11 08:51:00;;;;;;;41.42;18.35;;;;;;;-141.50;100.00;63355.56;5100037;28;20055;-77
2024/02/11 08:53:30;;;;;;;41.10;17.92;;;;;;;-141.50;100.00;63355.56;5102160;28;20039;-77
2024/02/11 08:56:01;;;;;;;40.92;18.25;;;;;;;-141.50;100.00;63355.56;5106519;28;20139;-77
2024/02/11 08:58:28;;;;;;;43.13;17.95;;;;;;;-141.50;100.00;63355.56;5084452;28;20043;-77
2024/02/11 09:00:55;;;;;;;40.50;17.92;;;;;;;-141.50;100.00;63355.56;5100471;28;20059;-77
2024/02/11 09:03:23;;;;;;;43.90;16.98;;;;;;;-141.50;100.00;63355.56;5080846;28;20063;-78
2024/02/11 09:05:50;;;;;;;40.47;16.58;;;;;;;-141.50;100.00;63355.56;5108307;28;20056;-77
2024/02/11 09:08:18;;;;;;;40.05;16.63;;;;;;;-141.50;100.00;63355.56;5089693;28;20063;-77
2024/02/11 09:10:45;;;;;;;41.28;17.25;;;;;;;-141.50;100.00;63355.56;5104815;28;20054;-78
2024/02/11 09:13:12;;;;;;;36.53;16.27;;;;;;;-141.50;100.00;63355.56;5094225;28;20063;-78
2024/02/11 09:15:39;;;;;;;39.88;16.73;;;;;;;-141.50;100.00;63355.56;5070739;28;20064;-77
2024/02/11 09:18:08;;;;;;;37.25;17.15;;;;;;;-141.50;100.00;63355.56;5104373;28;20066;-77
2024/02/11 09:20:35;;;;;;;43.33;17.55;;;;;;;-141.50;100.00;63355.56;5103017;28;20317;-77
2024/02/11 09:23:04;;;;;;;42.70;17.23;;;;;;;-141.50;100.00;63355.56;5104395;28;20148;-77
2024/02/11 09:25:32;;;;;;;38.17;16.88;;;;;;;-141.50;100.00;63355.56;5082888;28;20039;-77
2024/02/11 09:27:59;;;;;;;38.40;16.02;;;;;;;-141.50;100.00;63355.56;5104536;28;20057;-77
2024/02/11 09:30:25;;;;;;;39.97;16.52;;;;;;;-141.50;100.00;63355.56;5066877;28;20055;-79
2024/02/11 09:32:52;;;;;;;40.10;17.15;;;;;;;-141.50;100.00;63355.56;5088762;28;20142;-79
2024/02/11 09:35:21;;;;;;;38.15;16.73;;;;;;;-141.50;100.00;63355.56;5083316;28;20491;-78
2024/02/11 09:37:49;;;;;;;39.78;16.98;;;;;;;-141.50;100.00;63355.56;5110400;28;20056;-78
2024/02/11 09:40:17;;;;;;;41.25;17.63;;;;;;;-141.50;100.00;63355.56;5108328;28;20505;-79
2024/02/11 09:42:45;;;;;;;40.95;18.60;;;;;;;-141.50;100.00;63355.56;5083993;28;20055;-77
2024/02/11 09:45:22;;;;;;;38.95;17.15;;;;;;;-141.50;100.00;63355.56;5104496;28;20437;-76
2024/02/11 09:47:52;;;;;;;40.33;17.42;;;;;;;-141.50;100.00;63355.56;5052963;28;20094;-77
2024/02/11 09:50:21;;;;;;;44.10;17.95;;;;;;;-141.50;100.00;63355.56;5084419;28;20051;-78
2024/02/11 09:52:49;;;;;;;39.40;17.42;;;;;;;-141.50;100.00;63355.56;5069379;28;20056;-77
2024/02/11 09:55:20;;;;;;;40.15;17.98;;;;;;;-141.50;100.00;63355.56;5107685;28;20059;-79
2024/02/11 09:57:48;;;;;;;43.67;18.67;;;;;;;-141.50;100.00;63355.56;5101600;28;20062;-78
2024/02/11 10:00:17;;;;;;;45.70;19.95;;;;;;;-141.50;100.00;63355.56;5111291;28;20079;-79
2024/02/11 10:02:45;;;;;;;43.80;18.92;;;;;;;-141.50;100.00;63355.56;5087727;28;20044;-80
2024/02/11 10:05:15;;;;;;;48.83;19.75;;;;;;;-141.50;100.00;63355.56;5108902;28;20056;-80
2024/02/11 10:07:45;;;;;;;42.13;18.08;;;;;;;-141.50;100.00;63355.56;5088600;28;20307;-78
2024/02/11 10:10:15;;;;;;;47.20;20.50;;;;;;;-141.50;100.00;63355.56;5080250;28;20061;-81
2024/02/11 10:12:45;;;;;;;66.30;24.67;;;;;;;-141.50;100.00;63355.56;5091654;28;20097;-80
2024/02/11 10:15:15;;;;;;;69.90;28.25;;;;;;;-141.50;100.00;63355.56;5058590;28;20057;-80
2024/02/11 10:17:43;;;;;;;67.57;27.33;;;;;;;-141.50;100.00;63355.56;5086604;28;20040;-80
2024/02/11 10:20:12;;;;;;;70.53;27.70;;;;;;;-141.50;100.00;63355.56;5112283;28;20117;-79
2024/02/11 10:22:39;;;;;;;74.28;26.63;;;;;;;-141.50;100.00;63355.56;5104054;28;20054;-80
2024/02/11 10:25:09;;;;;;;78.53;29.15;;;;;;;-141.50;100.00;63355.56;5111494;28;20159;-79
2024/02/11 10:27:36;;;;;;;84.35;29.42;;;;;;;-141.50;100.00;63355.56;5095787;28;20063;-80
2024/02/11 10:30:11;;;;;;;85.85;28.98;;;;;;;-141.50;100.00;63355.56;5093322;28;20047;-80
2024/02/11 10:32:38;;;;;;;89.45;30.35;;;;;;;-141.50;100.00;63355.56;5091643;28;20127;-80
2024/02/11 10:35:11;;;;;;;89.88;30.48;;;;;;;-141.50;100.00;63355.56;5102325;28;20418;-79
2024/02/11 10:37:41;;;;;;;81.22;29.80;;;;;;;-141.50;100.00;63355.56;5086117;28;20050;-80
2024/02/11 10:40:10;;;;;;;79.13;29.85;;;;;;;-141.50;100.00;63355.56;5070891;28;20059;-80
2024/02/11 10:42:41;;;;;;;76.10;28.83;;;;;;;-141.50;100.00;63355.56;5109389;28;20490;-80
2024/02/11 10:45:10;;;;;;;86.88;28.58;;;;;;;-141.50;100.00;63355.56;5086985;28;20073;-80
2024/02/11 10:47:38;;;;;;;87.43;28.70;;;;;;;-141.50;100.00;63355.56;5104399;28;20039;-80
2024/02/11 10:50:06;;;;;;;84.82;30.20;;;;;;;-141.50;100.00;63355.56;5104466;28;20051;-80
2024/02/11 10:52:40;;;;;;;90.88;29.95;;;;;;;-141.50;100.00;63355.56;5108263;28;20046;-80
2024/02/11 10:55:11;;;;;;;79.55;28.33;;;;;;;-141.50;100.00;63355.56;5103384;28;20063;-80
2024/02/11 10:57:44;;;;;;;86.00;29.08;;;;;;;-141.50;100.00;63355.56;5088199;28;20066;-80
2024/02/11 11:00:13;;;;;;;82.78;29.15;;;;;;;-141.50;100.00;63355.56;5101247;28;20055;-79
2024/02/11 11:02:42;;;;;;;84.82;27.83;;;;;;;-141.50;100.00;63355.56;5105269;28;20052;-80